Weather reports worldwide

Advertisment
Itsaso, Spain (8037): temperature & dewpoint: 04.04.2020 20:00:00 - 10.04.2020 20:00:00 (CEST)Itsaso, Spain (8037): wind speed & gusts: 04.04.2020 20:00:00 - 10.04.2020 20:00:00 (CEST)Itsaso, Spain (8037): wind direction: 04.04.2020 20:00:00 - 10.04.2020 20:00:00 (CEST)Itsaso, Spain (8037): reduced air pressure: 04.04.2020 20:00:00 - 10.04.2020 20:00:00 (CEST)Itsaso, Spain (8037): precipitation: 04.04.2020 20:00:00 - 10.04.2020 20:00:00 (CEST)
Date & Time tt [°C] td [°C] ff [km/h] ff [kn] fx [km/h] fx [kn] dd ppp [hPa] rr [mm]
10.04.2020 20:00:00 15,9 8,4 2 1 13 7 ESE 1017,8 -
10.04.2020 19:00:00 16,7 8,4 4 2 21 11 ESE 1017,3 0,0
10.04.2020 18:00:00 17,7 8,3 5 3 19 10 ESE 1016,9 0,0
10.04.2020 17:00:00 18,6 8,8 6 3 17 9 SE 1016,7 0,0
10.04.2020 16:00:00 15,9 7,4 5 3 15 8 E 1017,7 0,0
10.04.2020 15:00:00 14,8 6,5 5 3 18 10 ESE 1018,2 0,0
10.04.2020 14:00:00 14,6 5,9 5 3 18 10 ESE 1018,6 -
10.04.2020 13:00:00 14,3 5,6 1 1 11 6 SE 1019,0 0,0
10.04.2020 12:00:00 14,7 5,0 3 2 23 12 ESE 1019,2 0,0
10.04.2020 11:00:00 15,2 5,5 11 6 27 15 ESE 1018,5 0,0
10.04.2020 10:00:00 15,3 5,8 5 3 20 11 ESE 1018,1 0,0
10.04.2020 09:00:00 12,8 6,8 0 0 8 5 SE 1018,5 0,0
10.04.2020 08:00:00 11,1 5,5 1 1 13 7 ESE 1018,3 -
10.04.2020 07:00:00 11,3 5,1 1 0 9 5 ESE 1018,1 0,0
10.04.2020 06:00:00 12,0 5,0 1 1 7 4 E 1017,8 0,0
10.04.2020 05:00:00 12,8 5,0 1 1 11 6 SE 1017,4 0,0
10.04.2020 04:00:00 13,1 5,8 1 0 15 8 SE 1017,5 0,0
10.04.2020 03:00:00 13,1 6,4 1 1 15 8 ESE 1017,6 0,0
10.04.2020 02:00:00 14,1 7,1 2 1 18 10 SE 1017,7 -
10.04.2020 01:00:00 14,1 8,1 1 1 11 6 ESE 1017,4 0,0
10.04.2020 00:00:00 15,0 8,5 1 0 9 5 SSE 1017,5 0,0
09.04.2020 23:00:00 14,6 8,1 0 0 7 4 S 1017,5 0,0
09.04.2020 22:00:00 15,3 7,6 0 0 11 6 SSE 1017,0 0,0
09.04.2020 21:00:00 16,4 6,5 0 0 12 6 SSE 1016,2 0,0
09.04.2020 20:00:00 18,7 6,5 2 1 16 9 SE 1015,1 -
09.04.2020 19:00:00 20,1 6,8 5 3 22 12 SE 1014,3 0,0
09.04.2020 18:00:00 21,2 7,0 6 3 23 12 SE 1014,0 0,0
09.04.2020 17:00:00 21,5 8,4 9 5 27 15 ESE 1014,2 0,0
09.04.2020 16:00:00 21,6 8,5 13 7 28 15 E 1014,9 0,0
09.04.2020 15:00:00 20,9 8,1 11 6 26 14 E 1015,3 0,0
09.04.2020 14:00:00 20,3 8,0 7 4 22 12 ESE 1016,1 -
09.04.2020 13:00:00 19,6 7,7 6 3 23 12 ESE 1017,0 0,0
09.04.2020 12:00:00 18,4 7,4 3 2 24 13 E 1017,8 0,0
09.04.2020 11:00:00 16,8 7,4 5 3 18 10 ESE 1018,4 0,0
09.04.2020 10:00:00 14,6 7,1 6 4 18 10 E 1018,4 0,0
09.04.2020 09:00:00 12,1 8,9 1 1 7 4 ENE 1019,2 0,0
09.04.2020 08:00:00 10,1 7,7 0 0 3 1 NNW 1019,3 -
09.04.2020 07:00:00 10,3 7,7 0 0 0 0 W 1019,1 0,0
09.04.2020 06:00:00 10,5 7,7 0 0 1 1 W 1019,1 0,0
09.04.2020 05:00:00 10,8 7,8 0 0 7 4 SE 1019,2 0,0
09.04.2020 04:00:00 11,6 8,3 0 0 3 1 SW 1019,3 0,0
09.04.2020 03:00:00 11,9 8,8 0 0 5 3 S 1019,6 0,0
09.04.2020 02:00:00 12,1 9,2 0 0 1 1 ENE 1020,2 -
09.04.2020 01:00:00 12,3 9,2 0 0 0 0 SSE 1020,4 0,0
09.04.2020 00:00:00 12,7 9,7 0 0 1 1 SSE 1020,4 0,0
08.04.2020 23:00:00 13,1 10,0 0 0 1 0 S 1020,3 0,0
08.04.2020 22:00:00 13,5 9,9 0 0 2 1 W 1020,0 0,0
08.04.2020 21:00:00 15,3 9,4 0 0 4 2 NNW 1019,2 0,0
08.04.2020 20:00:00 17,6 8,9 2 1 6 3 ENE 1018,2 -
08.04.2020 19:00:00 18,2 8,8 2 1 13 7 NNE 1017,9 0,0
08.04.2020 18:00:00 20,1 7,4 5 3 17 9 SE 1017,4 0,0
08.04.2020 17:00:00 20,0 8,0 0 0 11 6 NNE 1018,1 0,0
08.04.2020 16:00:00 18,9 7,3 5 3 23 13 E 1018,8 0,0
08.04.2020 15:00:00 19,7 7,7 4 2 22 12 ESE 1019,2 0,0
08.04.2020 14:00:00 18,7 7,4 11 6 26 14 E 1020,1 -
08.04.2020 13:00:00 18,0 7,1 10 6 26 14 ESE 1020,9 0,0
08.04.2020 12:00:00 16,8 6,8 8 4 22 12 ESE 1021,7 0,0
08.04.2020 11:00:00 15,2 6,7 6 4 20 11 ESE 1022,2 0,0
08.04.2020 10:00:00 13,8 7,3 6 3 13 7 E 1022,6 0,0
08.04.2020 09:00:00 11,2 8,3 0 0 1 1 N 1023,0 0,0
08.04.2020 08:00:00 9,1 7,3 0 0 9 5 S 1023,0 -
08.04.2020 07:00:00 10,1 7,1 0 0 14 8 E 1022,5 0,0
08.04.2020 06:00:00 11,1 7,6 1 0 17 9 ESE 1022,3 0,0
08.04.2020 05:00:00 11,3 7,8 4 2 18 10 ESE 1022,5 0,0
08.04.2020 04:00:00 11,7 8,1 5 3 19 10 ESE 1022,6 0,0
08.04.2020 03:00:00 11,7 8,5 5 3 19 10 E 1023,0 0,0
08.04.2020 02:00:00 11,4 8,9 4 2 16 9 ESE 1023,5 -
08.04.2020 01:00:00 11,1 8,8 3 2 15 8 ESE 1023,4 0,0
08.04.2020 00:00:00 11,1 9,2 1 0 12 7 ESE 1023,5 0,0
07.04.2020 23:00:00 11,2 8,8 0 0 19 10 SE 1023,4 0,0
07.04.2020 22:00:00 11,6 8,7 4 2 17 9 E 1022,9 0,0
07.04.2020 21:00:00 12,2 8,3 7 4 23 12 ESE 1022,4 0,0
07.04.2020 20:00:00 12,8 8,5 6 4 23 13 SE 1022,1 -
07.04.2020 19:00:00 13,7 8,8 10 6 26 14 ESE 1021,3 0,0
07.04.2020 18:00:00 14,7 8,9 9 5 31 17 ESE 1021,0 0,0
07.04.2020 17:00:00 14,7 8,4 14 8 29 16 SE 1020,9 0,0
07.04.2020 16:00:00 15,7 8,9 11 6 29 16 ESE 1020,8 0,0
07.04.2020 15:00:00 15,6 8,8 10 5 33 18 ESE 1021,3 0,0
07.04.2020 14:00:00 14,2 8,8 12 7 32 17 SE 1021,8 -
07.04.2020 13:00:00 12,0 9,2 8 5 23 12 ESE 1022,6 0,0
07.04.2020 12:00:00 10,5 9,6 6 3 14 8 E 1023,3 0,5
07.04.2020 11:00:00 10,6 8,5 3 1 19 11 SE 1023,0 0,5
07.04.2020 10:00:00 10,8 8,3 9 5 22 12 ESE 1022,5 0,0
07.04.2020 09:00:00 10,6 8,7 2 1 19 11 E 1022,2 0,0
07.04.2020 08:00:00 9,6 9,4 0 0 10 5 SSE 1021,9 -
07.04.2020 07:00:00 9,3 9,2 0 0 1 1 SW 1021,8 0,0
07.04.2020 06:00:00 9,3 9,2 0 0 7 4 SE 1021,5 0,0
07.04.2020 05:00:00 9,8 9,7 1 0 6 4 S 1021,7 0,0
07.04.2020 04:00:00 9,6 9,4 0 0 1 1 WNW 1022,0 0,0
07.04.2020 03:00:00 9,4 9,3 0 0 5 3 SW 1022,4 0,0
07.04.2020 02:00:00 9,5 9,3 0 0 5 3 ENE 1022,6 -
07.04.2020 01:00:00 9,5 9,3 0 0 3 2 NE 1022,8 0,0
07.04.2020 00:00:00 9,3 9,2 0 0 10 6 SW 1023,1 0,0
06.04.2020 23:00:00 9,5 9,3 2 1 8 4 W 1023,1 0,1
06.04.2020 22:00:00 9,8 9,7 0 0 2 1 SE 1022,9 0,2
06.04.2020 21:00:00 10,0 9,8 0 0 3 2 ESE 1022,1 0,5
06.04.2020 20:00:00 9,8 9,7 0 0 16 9 SW 1022,0 -
06.04.2020 19:00:00 10,5 10,2 2 1 10 5 WNW 1021,4 1,3
06.04.2020 18:00:00 11,2 10,5 5 3 19 10 WNW 1021,0 0,3
06.04.2020 17:00:00 12,7 9,7 10 5 26 14 WNW 1020,4 0,0
06.04.2020 16:00:00 15,1 8,1 4 2 15 8 WNW 1019,8 0,0
06.04.2020 15:00:00 14,7 6,2 2 1 17 9 ESE 1019,6 0,0
06.04.2020 14:00:00 14,5 6,4 6 4 19 10 ESE 1019,2 -
06.04.2020 13:00:00 14,1 6,4 7 4 22 12 ESE 1018,9 0,0
06.04.2020 12:00:00 12,8 5,9 5 3 19 10 E 1019,1 0,0
06.04.2020 11:00:00 11,7 5,8 6 4 21 11 ESE 1018,5 0,0
06.04.2020 10:00:00 11,3 5,5 8 5 24 13 ESE 1018,2 0,1
06.04.2020 09:00:00 11,0 4,6 6 3 29 16 ESE 1017,5 0,0
06.04.2020 08:00:00 10,8 4,3 8 4 21 11 ESE 1016,9 -
06.04.2020 07:00:00 10,6 4,3 3 2 29 16 E 1016,4 0,0
06.04.2020 06:00:00 11,0 5,1 6 3 25 14 SE 1016,2 0,0
06.04.2020 05:00:00 11,3 5,5 6 3 27 15 ESE 1015,8 0,0
06.04.2020 04:00:00 11,5 5,9 8 4 31 17 ESE 1015,8 0,0
06.04.2020 03:00:00 12,5 5,9 5 3 31 17 SE 1015,4 0,0
06.04.2020 02:00:00 12,4 6,4 10 5 36 19 ESE 1015,3 -
06.04.2020 01:00:00 12,4 7,4 10 6 40 22 SE 1015,1 0,1
06.04.2020 00:00:00 12,0 7,1 10 6 32 17 ESE 1014,9 0,4
05.04.2020 23:00:00 14,0 4,8 6 3 34 18 SSE 1014,5 0,0
05.04.2020 22:00:00 14,0 5,1 4 2 35 19 ESE 1013,7 0,0
05.04.2020 21:00:00 14,1 5,0 4 2 37 20 ESE 1012,8 0,0
05.04.2020 20:00:00 15,2 5,5 11 6 35 19 SE 1012,0 -
05.04.2020 19:00:00 15,6 5,5 9 5 36 19 SE 1011,7 0,0
05.04.2020 18:00:00 16,3 5,6 8 5 34 18 SE 1011,5 0,0
05.04.2020 17:00:00 16,7 5,9 10 6 45 24 ESE 1011,6 0,0
05.04.2020 16:00:00 16,9 6,1 13 7 45 24 SE 1012,1 0,0
05.04.2020 15:00:00 16,5 5,8 16 9 42 23 ESE 1012,5 0,0
05.04.2020 14:00:00 16,2 4,8 14 7 44 24 ESE 1013,0 -
05.04.2020 13:00:00 14,8 4,1 20 11 42 23 SE 1013,7 0,0
05.04.2020 12:00:00 14,1 4,3 16 9 37 20 ESE 1013,9 0,0
05.04.2020 11:00:00 11,5 3,2 11 6 38 21 ESE 1014,5 0,0
05.04.2020 10:00:00 10,5 3,0 13 7 38 20 ESE 1014,5 0,0
05.04.2020 09:00:00 9,5 2,3 13 7 37 20 ESE 1015,1 0,0
05.04.2020 08:00:00 9,2 2,1 11 6 38 21 ESE 1014,8 -
05.04.2020 07:00:00 9,2 2,1 4 2 32 17 ESE 1014,2 0,0
05.04.2020 06:00:00 9,2 2,3 8 5 41 22 ESE 1014,3 0,0
05.04.2020 05:00:00 9,6 2,7 11 6 40 22 ESE 1014,2 0,0
05.04.2020 04:00:00 10,4 3,0 10 5 39 21 SE 1014,4 0,0
05.04.2020 03:00:00 10,9 2,5 13 7 36 19 SE 1014,5 0,0
05.04.2020 02:00:00 11,1 1,9 7 4 27 15 SE 1015,0 -
05.04.2020 01:00:00 12,0 1,9 10 6 32 18 ESE 1014,9 0,0
05.04.2020 00:00:00 12,6 2,1 7 4 30 16 SE 1014,2 0,0
04.04.2020 23:00:00 13,3 1,9 5 3 37 20 ESE 1014,3 0,0
04.04.2020 22:00:00 14,0 1,9 11 6 38 21 ESE 1013,1 0,0
04.04.2020 21:00:00 14,5 2,1 13 7 38 21 ESE 1012,3 0,0
04.04.2020 20:00:00 15,3 1,7 4 2 22 12 ESE 1012,1 -

tt = temperature
td = dewpoint
ff = wind speed
fx = gusts
dd = wind direction
ppp = reduced air pressure
rr = precipitation

Next stations